Time;durP1;ratioP1;P1;durP2;ratioP2;P2;SDS_P1;SDS_P2;PMS_P1;PMS_P2;Temp;Humidity;BMP_temperature;BMP_pressure;BME280_temperature;BME280_humidity;BME280_pressure;Samples;Min_cycle;Max_cycle;Signal;HPM_P1;HPM_P2
2023/10/28 00:01:52;;;;;;;13.73;8.00;;;11.20;99.90;;;;;;4998349;28;20576;-67
2023/10/28 00:04:18;;;;;;;10.97;6.93;;;11.20;99.90;;;;;;5011838;28;20477;-62
2023/10/28 00:06:45;;;;;;;9.30;7.17;;;11.20;99.90;;;;;;5017768;28;20426;-59
2023/10/28 00:09:15;;;;;;;10.77;5.80;;;11.20;99.90;;;;;;5001441;28;20481;-64
2023/10/28 00:11:42;;;;;;;10.50;6.90;;;11.20;99.90;;;;;;5002591;28;20541;-64
2023/10/28 00:14:09;;;;;;;7.47;5.30;;;11.20;99.90;;;;;;5014863;28;20434;-50
2023/10/28 00:16:36;;;;;;;10.20;6.50;;;11.10;99.90;;;;;;5002508;28;21029;-67
2023/10/28 00:19:03;;;;;;;9.37;7.27;;;11.20;99.90;;;;;;4998592;28;20775;-66
2023/10/28 00:21:30;;;;;;;7.50;5.57;;;11.20;99.90;;;;;;5012289;28;20430;-55
2023/10/28 00:23:57;;;;;;;9.07;5.93;;;11.20;99.90;;;;;;5020241;28;20430;-64
2023/10/28 00:26:27;;;;;;;9.47;7.03;;;11.20;99.90;;;;;;5005918;28;20994;-67
2023/10/28 00:28:53;;;;;;;9.90;6.10;;;11.20;99.90;;;;;;4998207;28;20564;-68
2023/10/28 00:31:21;;;;;;;8.83;5.17;;;11.20;99.90;;;;;;5010184;28;20478;-66
2023/10/28 00:33:50;;;;;;;7.90;5.10;;;11.20;99.90;;;;;;5015528;28;20442;-64
2023/10/28 00:36:16;;;;;;;10.53;6.50;;;11.20;99.90;;;;;;5018059;28;20469;-65
2023/10/28 00:38:43;;;;;;;14.17;8.30;;;11.20;99.90;;;;;;5007751;28;20465;-65
2023/10/28 00:41:11;;;;;;;12.87;7.40;;;11.20;99.90;;;;;;5006865;28;20464;-58
2023/10/28 00:43:39;;;;;;;10.10;5.90;;;11.20;99.90;;;;;;5017465;28;20504;-64
2023/10/28 00:46:07;;;;;;;14.40;7.80;;;11.20;99.90;;;;;;5017353;28;20446;-64
2023/10/28 00:48:34;;;;;;;11.20;6.97;;;11.20;99.90;;;;;;5016719;28;20469;-67
2023/10/28 00:51:01;;;;;;;11.70;7.67;;;11.30;99.90;;;;;;5017893;28;20511;-60
2023/10/28 00:53:30;;;;;;;9.20;6.60;;;11.30;99.90;;;;;;5017530;28;20470;-66
2023/10/28 00:55:59;;;;;;;10.33;7.20;;;11.30;99.90;;;;;;5019481;28;20456;-63
2023/10/28 00:58:26;;;;;;;9.63;6.87;;;11.30;99.90;;;;;;5008079;28;20470;-68
2023/10/28 01:00:55;;;;;;;10.40;6.70;;;11.30;99.90;;;;;;5010546;28;20449;-67
2023/10/28 01:03:22;;;;;;;10.90;7.07;;;11.30;99.90;;;;;;5014594;28;20461;-66
2023/10/28 01:05:49;;;;;;;13.90;6.40;;;11.20;99.90;;;;;;5014304;28;20494;-65
2023/10/28 01:08:15;;;;;;;9.93;6.93;;;11.20;99.90;;;;;;5011485;28;20785;-67
2023/10/28 01:10:43;;;;;;;8.93;6.57;;;11.20;99.90;;;;;;5001609;28;20573;-64
2023/10/28 01:13:10;;;;;;;9.53;6.07;;;11.10;99.90;;;;;;5015103;28;20456;-60
2023/10/28 01:15:37;;;;;;;10.17;6.40;;;11.10;99.90;;;;;;5018743;28;20607;-68
2023/10/28 01:18:05;;;;;;;10.20;6.67;;;11.10;99.90;;;;;;5001233;28;20569;-65
2023/10/28 01:20:32;;;;;;;12.77;7.73;;;11.10;99.90;;;;;;4996160;28;20540;-68
2023/10/28 01:23:00;;;;;;;9.90;6.67;;;11.10;99.90;;;;;;4998094;28;20481;-67
2023/10/28 01:25:27;;;;;;;13.53;6.47;;;11.20;99.90;;;;;;4999277;28;20485;-67
2023/10/28 01:27:54;;;;;;;12.10;7.10;;;11.20;99.90;;;;;;5011156;28;20914;-67
2023/10/28 01:30:21;;;;;;;10.80;6.23;;;11.10;99.90;;;;;;5014016;28;20474;-63
2023/10/28 01:32:48;;;;;;;9.07;6.10;;;11.10;99.90;;;;;;4998186;28;20481;-67
2023/10/28 01:35:15;;;;;;;13.53;8.80;;;11.10;99.90;;;;;;4995930;28;20993;-66
2023/10/28 01:37:42;;;;;;;11.87;7.40;;;11.10;99.90;;;;;;4995879;28;20553;-67
2023/10/28 01:40:13;;;;;;;11.20;6.53;;;11.10;99.90;;;;;;4996422;28;20958;-67
2023/10/28 01:42:41;;;;;;;9.93;5.70;;;11.10;99.90;;;;;;4996784;28;20481;-66
2023/10/28 01:45:11;;;;;;;9.80;7.13;;;11.10;99.90;;;;;;5018013;28;20534;-56
2023/10/28 01:47:39;;;;;;;8.57;6.53;;;11.10;99.90;;;;;;5003110;28;20525;-66
2023/10/28 01:50:07;;;;;;;11.10;6.37;;;11.10;99.90;;;;;;4995339;28;20552;-65
2023/10/28 01:52:34;;;;;;;9.03;5.80;;;11.10;99.90;;;;;;4995518;28;20446;-66
2023/10/28 01:55:01;;;;;;;7.57;5.07;;;11.10;99.90;;;;;;5003719;28;20577;-64
2023/10/28 01:57:30;;;;;;;8.73;4.73;;;11.10;99.90;;;;;;5001217;28;20485;-66
2023/10/28 01:59:58;;;;;;;6.90;4.30;;;11.10;99.90;;;;;;5013282;28;20485;-61
2023/10/28 02:02:24;;;;;;;7.60;4.47;;;11.10;99.90;;;;;;5017005;28;20438;-64
2023/10/28 02:04:52;;;;;;;7.10;4.63;;;11.00;99.90;;;;;;5017010;28;20461;-64
2023/10/28 02:07:19;;;;;;;6.53;4.17;;;11.00;99.90;;;;;;5017065;28;21032;-67
2023/10/28 02:09:48;;;;;;;5.77;4.50;;;11.00;99.90;;;;;;5003127;28;20458;-66
2023/10/28 02:12:15;;;;;;;6.40;4.80;;;11.00;99.90;;;;;;4997146;28;20486;-68
2023/10/28 02:14:43;;;;;;;6.40;4.40;;;11.00;99.90;;;;;;4998861;28;20453;-67
2023/10/28 02:17:10;;;;;;;5.90;4.30;;;10.90;99.90;;;;;;4997012;28;20532;-66
2023/10/28 02:19:38;;;;;;;7.90;4.73;;;10.90;99.90;;;;;;4999185;28;20470;-66
2023/10/28 02:22:06;;;;;;;7.10;3.80;;;10.90;99.90;;;;;;4999162;28;20487;-66
2023/10/28 02:24:33;;;;;;;6.80;4.90;;;10.90;99.90;;;;;;5004199;28;20472;-67
2023/10/28 02:26:59;;;;;;;7.80;5.00;;;10.90;99.90;;;;;;5012648;28;20484;-65
2023/10/28 02:29:29;;;;;;;5.00;4.00;;;10.90;99.90;;;;;;5013012;28;20478;-66
2023/10/28 02:31:57;;;;;;;7.87;4.50;;;10.90;99.90;;;;;;4997622;28;20489;-66
2023/10/28 02:34:24;;;;;;;8.77;4.33;;;10.90;99.90;;;;;;4996610;28;20454;-66
2023/10/28 02:36:51;;;;;;;7.47;3.90;;;10.90;99.90;;;;;;5004986;28;20462;-66
2023/10/28 02:39:18;;;;;;;9.53;5.80;;;10.90;99.90;;;;;;5016779;28;20438;-63
2023/10/28 02:41:45;;;;;;;6.73;4.50;;;10.90;99.90;;;;;;5017030;28;20501;-64
2023/10/28 02:44:11;;;;;;;7.20;4.63;;;10.90;99.90;;;;;;4995952;28;20510;-64
2023/10/28 02:46:39;;;;;;;4.30;2.97;;;10.90;99.90;;;;;;4995385;28;20844;-67
2023/10/28 02:49:07;;;;;;;5.40;3.83;;;10.90;99.90;;;;;;5001378;28;20464;-65
2023/10/28 02:51:34;;;;;;;5.90;3.50;;;10.90;99.90;;;;;;5014643;28;20485;-60
2023/10/28 02:54:01;;;;;;;5.83;3.27;;;10.90;99.90;;;;;;5017236;28;20442;-60
2023/10/28 02:56:28;;;;;;;4.07;2.97;;;10.90;99.90;;;;;;5016955;28;20466;-63
2023/10/28 02:58:55;;;;;;;6.77;3.90;;;10.90;99.90;;;;;;5017164;28;20465;-60
2023/10/28 03:01:22;;;;;;;5.53;4.20;;;10.90;99.90;;;;;;4998439;28;20533;-67
2023/10/28 03:03:49;;;;;;;5.40;3.33;;;10.80;99.90;;;;;;5003613;28;20480;-66
2023/10/28 03:06:17;;;;;;;6.40;3.43;;;10.90;99.90;;;;;;5004569;28;20480;-65
2023/10/28 03:08:44;;;;;;;5.90;4.10;;;10.90;99.90;;;;;;5018137;28;20903;-66
2023/10/28 03:11:11;;;;;;;5.07;3.17;;;10.90;99.90;;;;;;5020316;28;20505;-63
2023/10/28 03:13:38;;;;;;;8.10;2.90;;;10.80;99.90;;;;;;5012706;28;20446;-65
2023/10/28 03:16:06;;;;;;;4.47;2.77;;;10.80;99.90;;;;;;4998805;28;20616;-66
2023/10/28 03:18:33;;;;;;;7.03;3.90;;;10.80;99.90;;;;;;5013347;28;20426;-65
2023/10/28 03:20:59;;;;;;;5.73;3.63;;;10.80;99.90;;;;;;5001916;28;20466;-66
2023/10/28 03:23:28;;;;;;;4.50;2.93;;;10.80;99.90;;;;;;5017253;28;20441;-63
2023/10/28 03:25:55;;;;;;;6.30;3.40;;;10.80;99.90;;;;;;5011712;28;20449;-65
2023/10/28 03:28:22;;;;;;;4.90;2.87;;;10.80;99.90;;;;;;4998571;28;20552;-66
2023/10/28 03:30:49;;;;;;;5.03;2.93;;;10.80;99.90;;;;;;4998527;28;20895;-65
2023/10/28 03:33:16;;;;;;;5.80;3.03;;;10.80;99.90;;;;;;5003720;28;20474;-66
2023/10/28 03:35:44;;;;;;;4.63;2.83;;;10.70;99.90;;;;;;5010261;28;20484;-65
2023/10/28 03:38:11;;;;;;;4.40;3.40;;;10.70;99.90;;;;;;5009998;28;20473;-66
2023/10/28 03:40:40;;;;;;;4.70;3.37;;;10.80;99.90;;;;;;5002255;28;20470;-66
2023/10/28 03:43:07;;;;;;;4.03;2.80;;;10.80;99.90;;;;;;5012721;28;20488;-67
2023/10/28 03:45:37;;;;;;;5.70;3.47;;;10.80;99.90;;;;;;5002306;28;20490;-57
2023/10/28 03:48:04;;;;;;;3.67;3.13;;;10.70;99.90;;;;;;5016238;28;20489;-68
2023/10/28 03:50:31;;;;;;;4.53;3.40;;;10.70;99.90;;;;;;5006148;28;20486;-66
2023/10/28 03:52:58;;;;;;;6.80;3.30;;;10.80;99.90;;;;;;4998029;28;20547;-67
2023/10/28 03:55:25;;;;;;;8.37;3.53;;;10.80;99.90;;;;;;4998205;28;20478;-67
2023/10/28 03:57:55;;;;;;;5.57;3.40;;;10.80;99.90;;;;;;5006285;28;20421;-53
2023/10/28 04:00:24;;;;;;;7.70;3.50;;;10.70;99.90;;;;;;5022074;28;20406;-55
2023/10/28 04:02:51;;;;;;;3.47;2.80;;;10.70;99.90;;;;;;5010439;28;20541;-67
2023/10/28 04:05:19;;;;;;;4.60;2.50;;;10.70;99.90;;;;;;5013336;28;20492;-64
2023/10/28 04:07:45;;;;;;;2.60;2.10;;;10.60;99.90;;;;;;5003203;28;20542;-65
2023/10/28 04:10:12;;;;;;;4.77;3.40;;;10.60;99.90;;;;;;5006167;28;20452;-64
2023/10/28 04:12:39;;;;;;;3.90;2.97;;;10.60;99.90;;;;;;5014999;28;20481;-65
2023/10/28 04:15:09;;;;;;;2.80;2.33;;;10.60;99.90;;;;;;5014920;28;20446;-67
2023/10/28 04:17:36;;;;;;;4.60;3.17;;;10.60;99.90;;;;;;5002744;28;20470;-66
2023/10/28 04:20:03;;;;;;;3.90;2.63;;;10.60;99.90;;;;;;5012923;28;20434;-57
2023/10/28 04:22:32;;;;;;;3.20;2.73;;;10.60;99.90;;;;;;5020894;28;20427;-60
2023/10/28 04:24:59;;;;;;;3.70;2.97;;;10.60;99.90;;;;;;5000685;28;20434;-66
2023/10/28 04:27:26;;;;;;;3.50;2.30;;;10.60;99.90;;;;;;5007737;28;20494;-65
2023/10/28 04:29:53;;;;;;;3.00;2.40;;;10.60;99.90;;;;;;5016884;28;20835;-65
2023/10/28 04:32:22;;;;;;;3.77;2.30;;;10.60;99.90;;;;;;5011733;28;20514;-67
2023/10/28 04:34:50;;;;;;;3.67;2.50;;;10.60;99.90;;;;;;4998441;28;20481;-66
2023/10/28 04:37:17;;;;;;;2.30;2.07;;;10.60;99.90;;;;;;4998069;28;20450;-66
2023/10/28 04:39:44;;;;;;;3.40;2.43;;;10.60;99.90;;;;;;5008942;28;20476;-66
2023/10/28 04:42:11;;;;;;;3.20;2.30;;;10.60;99.90;;;;;;4998098;28;20554;-66
2023/10/28 04:44:38;;;;;;;4.30;2.47;;;10.60;99.90;;;;;;4996975;28;20928;-68
2023/10/28 04:47:05;;;;;;;3.67;3.27;;;10.60;99.90;;;;;;5014115;28;20525;-65
2023/10/28 04:49:33;;;;;;;2.83;2.10;;;10.60;99.90;;;;;;5016469;28;20446;-65
2023/10/28 04:52:00;;;;;;;3.17;2.57;;;10.60;99.90;;;;;;4997803;28;20560;-65
2023/10/28 04:54:27;;;;;;;3.70;2.60;;;10.60;99.90;;;;;;5012382;28;20506;-63
2023/10/28 04:56:54;;;;;;;3.17;2.17;;;10.60;99.90;;;;;;5012464;28;20441;-65
2023/10/28 04:59:29;;;;;;;3.33;2.57;;;10.60;99.90;;;;;;4996725;28;20481;-64
2023/10/28 05:01:56;;;;;;;2.27;2.07;;;10.60;99.90;;;;;;5004215;28;20418;-58
2023/10/28 05:04:24;;;;;;;3.17;2.80;;;10.60;99.90;;;;;;5020742;28;20434;-56
2023/10/28 05:06:53;;;;;;;3.30;2.83;;;10.50;99.90;;;;;;5020434;28;20442;-65
2023/10/28 05:09:20;;;;;;;2.60;1.97;;;10.50;99.90;;;;;;5003968;28;20506;-66
2023/10/28 05:11:47;;;;;;;2.80;2.33;;;10.50;99.90;;;;;;5003191;28;20478;-66
2023/10/28 05:14:14;;;;;;;3.47;2.47;;;10.50;99.90;;;;;;4997362;28;20970;-60
2023/10/28 05:16:41;;;;;;;3.40;2.97;;;10.50;99.90;;;;;;5020487;28;20489;-56
2023/10/28 05:19:08;;;;;;;5.53;3.03;;;10.50;99.90;;;;;;5005506;28;20501;-65
2023/10/28 05:21:35;;;;;;;4.80;3.10;;;10.50;99.90;;;;;;4999402;28;20473;-66
2023/10/28 05:24:04;;;;;;;3.47;2.50;;;10.50;99.90;;;;;;4996457;28;20982;-64
2023/10/28 05:26:31;;;;;;;4.60;3.17;;;10.40;99.90;;;;;;4996590;28;20481;-64
2023/10/28 05:28:58;;;;;;;4.20;2.60;;;10.50;99.90;;;;;;5000946;28;20446;-65
2023/10/28 05:31:31;;;;;;;3.80;2.30;;;10.50;99.90;;;;;;5010698;28;20489;-64
2023/10/28 05:33:57;;;;;;;2.87;2.00;;;10.50;99.90;;;;;;5019672;28;20414;-63
2023/10/28 05:36:27;;;;;;;5.43;3.97;;;10.40;99.90;;;;;;5017924;28;20437;-62
2023/10/28 05:38:54;;;;;;;3.93;2.70;;;10.40;99.90;;;;;;5017692;28;20438;-64
2023/10/28 05:41:23;;;;;;;3.00;2.60;;;10.50;99.90;;;;;;5018099;28;20457;-63
2023/10/28 05:43:50;;;;;;;3.90;2.77;;;10.50;99.90;;;;;;5018176;28;20473;-62
2023/10/28 05:46:19;;;;;;;4.70;2.97;;;10.50;99.90;;;;;;5001326;28;20513;-66
2023/10/28 05:48:46;;;;;;;4.30;3.20;;;10.50;99.90;;;;;;4999400;28;20477;-65
2023/10/28 05:51:12;;;;;;;5.80;3.30;;;10.50;99.90;;;;;;5006886;28;20457;-65
2023/10/28 05:53:40;;;;;;;4.90;3.50;;;10.50;99.90;;;;;;5016095;28;20500;-64
2023/10/28 05:56:07;;;;;;;4.13;3.50;;;10.50;99.90;;;;;;5016012;28;20518;-62
2023/10/28 05:58:36;;;;;;;3.93;3.20;;;10.50;99.90;;;;;;5015876;28;20438;-62
2023/10/28 06:01:03;;;;;;;9.70;3.10;;;10.50;99.90;;;;;;5016007;28;20444;-63
2023/10/28 06:03:30;;;;;;;4.13;3.60;;;10.50;99.90;;;;;;5000965;28;20438;-65
2023/10/28 06:05:57;;;;;;;4.63;2.87;;;10.50;99.90;;;;;;5008122;28;20438;-64
2023/10/28 06:08:24;;;;;;;6.10;4.00;;;10.50;99.90;;;;;;5013330;28;20489;-63
2023/10/28 06:10:51;;;;;;;4.00;3.60;;;10.40;99.90;;;;;;4997495;28;20488;-68
2023/10/28 06:13:18;;;;;;;4.50;3.17;;;10.50;99.90;;;;;;4997485;28;20513;-63
2023/10/28 06:15:46;;;;;;;6.40;3.60;;;10.50;99.90;;;;;;5000786;28;20450;-66
2023/10/28 06:18:13;;;;;;;5.17;3.10;;;10.50;99.90;;;;;;5015902;28;20446;-63
2023/10/28 06:20:40;;;;;;;5.13;4.63;;;10.40;99.90;;;;;;5017210;28;20465;-65
2023/10/28 06:23:07;;;;;;;5.17;4.07;;;10.50;99.90;;;;;;5005167;28;20457;-66
2023/10/28 06:25:34;;;;;;;7.53;3.80;;;10.50;99.90;;;;;;4995552;28;20549;-65
2023/10/28 06:28:02;;;;;;;3.97;3.27;;;10.40;99.90;;;;;;4995483;28;20452;-65
2023/10/28 06:30:29;;;;;;;5.37;3.80;;;10.50;99.90;;;;;;4995466;28;20446;-66
2023/10/28 06:32:58;;;;;;;7.50;4.30;;;10.50;99.90;;;;;;4996816;28;21042;-65
2023/10/28 06:35:25;;;;;;;4.93;4.00;;;10.50;99.90;;;;;;4994818;28;20918;-62
2023/10/28 06:37:52;;;;;;;4.30;3.53;;;10.50;99.90;;;;;;4994922;28;20426;-65
2023/10/28 06:40:19;;;;;;;7.83;4.60;;;10.40;99.90;;;;;;4995361;28;20534;-65
2023/10/28 06:42:46;;;;;;;5.67;3.87;;;10.40;99.90;;;;;;5006819;28;20465;-65
2023/10/28 06:45:12;;;;;;;4.03;2.83;;;10.40;99.90;;;;;;5015033;28;20477;-64
2023/10/28 06:47:39;;;;;;;6.00;3.10;;;10.50;99.90;;;;;;4995972;28;20529;-65
2023/10/28 06:50:09;;;;;;;4.40;3.63;;;10.50;99.90;;;;;;4995435;28;20489;-66
2023/10/28 06:52:36;;;;;;;8.67;4.97;;;10.50;99.90;;;;;;5005760;28;20516;-64
2023/10/28 06:55:03;;;;;;;5.13;3.43;;;10.60;99.90;;;;;;5016423;28;20426;-64
2023/10/28 06:57:30;;;;;;;5.97;4.10;;;10.60;99.90;;;;;;5015853;28;20469;-65
2023/10/28 06:59:58;;;;;;;5.13;3.83;;;10.60;99.90;;;;;;4997719;28;20512;-64
2023/10/28 07:02:26;;;;;;;6.37;4.60;;;10.60;99.90;;;;;;5165161;22;20454;-69
2023/10/28 07:05:01;;;;;;;6.33;3.93;;;10.60;99.90;;;;;;5046131;28;20452;-68
2023/10/28 07:07:30;;;;;;;5.20;3.40;;;10.60;99.90;;;;;;5047593;28;20428;-67
2023/10/28 07:09:58;;;;;;;7.37;5.10;;;10.60;99.90;;;;;;5028098;28;20414;-67
2023/10/28 07:12:42;;;;;;;5.77;4.60;;;10.60;99.90;;;;;;5028027;28;20501;-67
2023/10/28 07:15:10;;;;;;;5.30;4.67;;;10.60;99.90;;;;;;5029311;28;20768;-68
2023/10/28 07:17:38;;;;;;;6.30;4.23;;;10.60;99.90;;;;;;5028126;28;20429;-69
2023/10/28 07:20:19;;;;;;;6.97;4.80;;;10.70;99.90;;;;;;5028246;28;20418;-67
2023/10/28 07:23:05;;;;;;;6.07;5.07;;;10.70;99.90;;;;;;5028111;28;20499;-67
2023/10/28 07:25:33;;;;;;;7.17;4.10;;;10.70;99.90;;;;;;5028911;28;20464;-67
2023/10/28 07:28:00;;;;;;;10.23;4.30;;;10.70;99.90;;;;;;5025513;28;20488;-69
2023/10/28 07:30:27;;;;;;;6.93;4.90;;;10.70;99.90;;;;;;5016605;28;20433;-68
2023/10/28 07:32:56;;;;;;;6.10;4.80;;;10.80;99.90;;;;;;5015021;28;20500;-68
2023/10/28 07:35:23;;;;;;;7.10;4.87;;;10.80;99.90;;;;;;5014414;28;20434;-68
2023/10/28 07:38:09;;;;;;;7.20;5.10;;;10.80;99.90;;;;;;5013466;28;20487;-68
2023/10/28 07:40:53;;;;;;;8.73;5.57;;;10.80;99.90;;;;;;4996064;28;20457;-67
2023/10/28 07:43:20;;;;;;;12.53;5.90;;;10.90;99.90;;;;;;5013175;28;20491;-68
2023/10/28 07:45:48;;;;;;;6.43;4.90;;;10.90;99.90;;;;;;5013689;28;20479;-66
2023/10/28 07:48:19;;;;;;;8.53;5.80;;;11.00;99.90;;;;;;5015255;28;20544;-67
2023/10/28 07:50:48;;;;;;;7.33;4.90;;;11.00;99.90;;;;;;5016255;28;20441;-69
2023/10/28 07:53:23;;;;;;;7.33;4.57;;;11.00;99.90;;;;;;5017772;28;20476;-67
2023/10/28 07:55:52;;;;;;;7.00;4.67;;;11.00;99.90;;;;;;5017659;28;20464;-66
2023/10/28 07:58:19;;;;;;;6.73;5.17;;;11.00;99.90;;;;;;5017873;28;20453;-66
2023/10/28 08:01:13;;;;;;;6.77;4.77;;;11.00;99.90;;;;;;5017739;28;20425;-70
2023/10/28 08:03:56;;;;;;;8.10;5.57;;;11.00;99.90;;;;;;5017172;28;20456;-66
2023/10/28 08:06:27;;;;;;;7.67;4.90;;;11.10;99.90;;;;;;5017850;28;20897;-68
2023/10/28 08:08:57;;;;;;;7.93;5.33;;;11.10;99.90;;;;;;5016308;28;20469;-68
2023/10/28 08:11:25;;;;;;;7.90;5.70;;;11.20;99.90;;;;;;5016215;28;20433;-68
2023/10/28 08:13:53;;;;;;;8.40;5.93;;;11.30;99.90;;;;;;4998305;28;20481;-68
2023/10/28 08:16:24;;;;;;;7.57;4.40;;;11.30;99.90;;;;;;5016008;28;20455;-67
2023/10/28 08:18:52;;;;;;;9.20;6.63;;;11.40;99.90;;;;;;5015513;28;20468;-69
2023/10/28 08:21:19;;;;;;;6.70;5.10;;;11.40;99.90;;;;;;4998826;28;20441;-67
2023/10/28 08:23:46;;;;;;;11.00;5.30;;;11.50;99.90;;;;;;5016703;28;20421;-66
2023/10/28 08:26:18;;;;;;;9.67;6.57;;;11.50;99.90;;;;;;5015538;28;20548;-66
2023/10/28 08:29:03;;;;;;;9.70;6.90;;;11.50;99.90;;;;;;5015452;28;20472;-66
2023/10/28 08:31:30;;;;;;;8.30;5.80;;;11.50;99.90;;;;;;5015371;28;20449;-67
2023/10/28 08:34:11;;;;;;;10.33;5.70;;;11.50;99.90;;;;;;5012553;28;20512;-67
2023/10/28 08:36:38;;;;;;;10.60;6.13;;;11.60;99.90;;;;;;5012289;28;20531;-66
2023/10/28 08:39:08;;;;;;;9.23;7.17;;;11.60;99.90;;;;;;5015437;28;21006;-67
2023/10/28 08:41:37;;;;;;;11.97;7.50;;;11.70;99.90;;;;;;5015297;28;20559;-68
2023/10/28 08:44:05;;;;;;;13.00;8.10;;;11.80;99.90;;;;;;5015505;28;20468;-67
2023/10/28 08:46:36;;;;;;;16.47;7.50;;;11.80;99.90;;;;;;5015370;28;20504;-68
2023/10/28 08:49:04;;;;;;;7.60;5.80;;;11.80;99.90;;;;;;5014690;28;20997;-67
2023/10/28 08:51:34;;;;;;;7.93;6.67;;;11.80;99.90;;;;;;5013708;28;20463;-67
2023/10/28 08:54:04;;;;;;;14.73;7.53;;;11.80;99.90;;;;;;5014896;28;21061;-70
2023/10/28 08:56:35;;;;;;;8.97;6.57;;;11.90;99.90;;;;;;4997825;28;20548;-67
2023/10/28 08:59:06;;;;;;;9.93;7.50;;;11.80;99.90;;;;;;5014236;28;20496;-68
2023/10/28 09:01:37;;;;;;;7.53;5.80;;;11.80;99.90;;;;;;4997128;28;20492;-68
2023/10/28 09:04:05;;;;;;;9.30;6.80;;;11.80;99.90;;;;;;4997586;28;20841;-68
2023/10/28 09:06:52;;;;;;;8.50;6.43;;;11.80;99.90;;;;;;5012235;28;20465;-67
2023/10/28 09:09:21;;;;;;;12.00;7.63;;;11.70;99.90;;;;;;5002673;28;20897;-67
2023/10/28 09:11:48;;;;;;;10.33;8.10;;;11.70;99.90;;;;;;4996274;28;20433;-67
2023/10/28 09:14:48;;;;;;;9.40;7.47;;;11.70;99.90;;;;;;4995907;28;20474;-67
2023/10/28 09:17:20;;;;;;;9.50;7.37;;;11.70;99.90;;;;;;4994192;28;20835;-69
2023/10/28 09:19:47;;;;;;;10.47;8.50;;;11.70;99.90;;;;;;4995169;28;20470;-67
2023/10/28 09:22:16;;;;;;;9.77;7.50;;;11.80;99.90;;;;;;4995029;28;20521;-68
2023/10/28 09:24:59;;;;;;;12.37;7.30;;;11.80;99.90;;;;;;5009430;28;20790;-68
2023/10/28 09:27:31;;;;;;;9.73;6.80;;;11.80;99.90;;;;;;4996721;28;20473;-67
2023/10/28 09:30:06;;;;;;;10.40;6.70;;;11.80;99.90;;;;;;5014295;28;20965;-69
2023/10/28 09:32:34;;;;;;;9.50;6.43;;;11.90;99.90;;;;;;4989527;28;20540;-67
2023/10/28 09:35:07;;;;;;;8.53;6.20;;;11.90;99.90;;;;;;4994365;28;20443;-68
2023/10/28 09:37:35;;;;;;;9.77;7.50;;;11.90;99.90;;;;;;4994867;28;20492;-68
2023/10/28 09:40:05;;;;;;;11.37;7.00;;;12.00;99.90;;;;;;5009672;28;20460;-68
2023/10/28 09:42:35;;;;;;;9.20;6.90;;;12.20;99.90;;;;;;5013643;28;20950;-67
2023/10/28 09:45:04;;;;;;;9.87;6.43;;;12.20;99.90;;;;;;5013722;28;20453;-68
2023/10/28 09:47:55;;;;;;;9.23;6.23;;;12.40;99.90;;;;;;5014241;28;20505;-67
2023/10/28 09:50:25;;;;;;;10.40;7.63;;;12.40;99.90;;;;;;4932033;29;20499;-67
2023/10/28 09:52:54;;;;;;;10.57;8.30;;;12.60;99.90;;;;;;4922464;29;20496;-66
2023/10/28 09:55:28;;;;;;;8.90;6.73;;;12.60;99.90;;;;;;4931030;29;20958;-67
2023/10/28 09:58:07;;;;;;;8.47;7.27;;;12.70;99.90;;;;;;4908836;29;21112;-70
2023/10/28 10:00:37;;;;;;;8.03;6.90;;;12.80;99.90;;;;;;4919851;29;20974;-67
2023/10/28 10:03:20;;;;;;;9.80;7.10;;;12.80;99.90;;;;;;4929676;29;20568;-68
2023/10/28 10:05:48;;;;;;;9.63;7.53;;;12.80;99.90;;;;;;4927008;29;20883;-68
2023/10/28 10:08:19;;;;;;;7.80;6.20;;;12.80;99.90;;;;;;4929323;29;21016;-68
2023/10/28 10:10:46;;;;;;;10.93;7.60;;;12.80;99.90;;;;;;4928465;29;20850;-68
2023/10/28 10:13:15;;;;;;;9.23;7.73;;;12.70;99.90;;;;;;4929028;29;20559;-69
2023/10/28 10:15:53;;;;;;;9.60;8.17;;;12.80;99.90;;;;;;4925704;29;20460;-68
2023/10/28 10:18:34;;;;;;;9.03;7.43;;;12.80;99.90;;;;;;4929505;29;20484;-66
2023/10/28 10:21:05;;;;;;;8.83;7.30;;;12.90;99.90;;;;;;4929606;29;20535;-67
2023/10/28 10:23:43;;;;;;;10.90;7.53;;;13.20;99.90;;;;;;4926755;29;20490;-67
2023/10/28 10:26:22;;;;;;;10.63;7.80;;;13.70;99.90;;;;;;4914246;29;20453;-67
2023/10/28 10:28:49;;;;;;;12.23;7.30;;;14.10;99.90;;;;;;4995841;28;20914;-68
2023/10/28 10:31:19;;;;;;;14.40;9.50;;;14.30;99.90;;;;;;5009892;28;21181;-68
2023/10/28 10:33:47;;;;;;;10.23;7.60;;;14.60;99.90;;;;;;4995073;28;20480;-69
2023/10/28 10:36:28;;;;;;;7.70;6.20;;;15.10;99.90;;;;;;4991585;28;20477;-67
2023/10/28 10:38:54;;;;;;;5.93;5.10;;;15.40;99.90;;;;;;5003251;28;20962;-67
2023/10/28 10:41:28;;;;;;;5.50;4.60;;;15.50;99.90;;;;;;5001248;28;20493;-68
2023/10/28 10:43:56;;;;;;;7.90;6.27;;;15.50;99.90;;;;;;5004036;28;20856;-69
2023/10/28 10:46:23;;;;;;;6.13;5.53;;;15.60;99.90;;;;;;4993600;28;20835;-68
2023/10/28 10:48:58;;;;;;;7.70;5.37;;;15.60;99.90;;;;;;4998073;28;20485;-67
2023/10/28 10:51:26;;;;;;;5.73;5.00;;;15.60;99.90;;;;;;5012591;28;21012;-68
2023/10/28 10:53:53;;;;;;;5.30;4.27;;;15.50;99.90;;;;;;5012815;28;20527;-67
2023/10/28 10:56:21;;;;;;;4.50;4.10;;;15.50;99.90;;;;;;5011024;28;20499;-67
2023/10/28 10:58:48;;;;;;;5.20;4.80;;;15.40;99.90;;;;;;4993385;28;20484;-68
2023/10/28 11:01:16;;;;;;;6.30;5.47;;;15.30;99.90;;;;;;5007928;28;20897;-67
2023/10/28 11:03:44;;;;;;;5.87;4.73;;;15.10;99.90;;;;;;4994720;28;20885;-68
2023/10/28 11:06:15;;;;;;;5.77;5.03;;;15.00;99.90;;;;;;5012899;28;20532;-68
2023/10/28 11:08:42;;;;;;;5.23;4.70;;;15.00;99.90;;;;;;5012791;28;20473;-68
2023/10/28 11:11:09;;;;;;;8.27;5.60;;;15.00;99.90;;;;;;5012714;28;20429;-66
2023/10/28 11:13:36;;;;;;;6.10;5.47;;;14.90;99.90;;;;;;5012536;28;20531;-68
2023/10/28 11:16:04;;;;;;;4.90;4.40;;;14.80;99.90;;;;;;5012529;28;20741;-67
2023/10/28 11:18:33;;;;;;;6.40;5.00;;;14.70;99.90;;;;;;5012651;28;20472;-67
2023/10/28 11:21:01;;;;;;;6.83;5.80;;;14.50;99.90;;;;;;5013054;28;20930;-67
2023/10/28 11:23:31;;;;;;;7.60;6.80;;;14.40;99.90;;;;;;4998133;28;20871;-68
2023/10/28 11:26:08;;;;;;;10.33;7.13;;;14.40;99.90;;;;;;5016848;28;20478;-66
2023/10/28 11:28:38;;;;;;;9.47;7.10;;;14.30;99.90;;;;;;5014503;28;20893;-68
2023/10/28 11:31:08;;;;;;;9.00;6.40;;;14.20;99.90;;;;;;5015953;28;20469;-68
2023/10/28 11:33:37;;;;;;;10.03;6.73;;;14.20;99.90;;;;;;5015958;28;20508;-68
2023/10/28 11:36:05;;;;;;;8.30;6.07;;;14.10;99.90;;;;;;5020675;28;20810;-68
2023/10/28 11:38:36;;;;;;;7.10;6.00;;;14.10;99.90;;;;;;5023383;28;20461;-67
2023/10/28 11:41:05;;;;;;;8.83;6.30;;;14.20;99.90;;;;;;5019522;28;21009;-67
2023/10/28 11:43:32;;;;;;;8.93;6.57;;;14.10;99.90;;;;;;5022267;28;20484;-67
2023/10/28 11:46:00;;;;;;;7.20;6.00;;;14.10;99.90;;;;;;5019542;28;20485;-66
2023/10/28 11:48:45;;;;;;;7.87;6.30;;;14.10;99.90;;;;;;5019091;28;20974;-67
2023/10/28 11:51:13;;;;;;;12.00;6.23;;;14.20;99.90;;;;;;5019155;28;20448;-66
2023/10/28 11:53:45;;;;;;;8.13;5.93;;;14.30;99.90;;;;;;5020189;28;20504;-66
2023/10/28 11:56:19;;;;;;;10.80;7.10;;;14.30;99.90;;;;;;5023643;28;20465;-68
2023/10/28 11:58:49;;;;;;;9.63;6.07;;;14.30;99.90;;;;;;5019853;28;20468;-69
2023/10/28 12:01:16;;;;;;;10.20;8.13;;;14.30;99.90;;;;;;5019991;28;20532;-68
2023/10/28 12:03:45;;;;;;;11.83;8.77;;;14.20;99.90;;;;;;5020141;28;20451;-67
2023/10/28 12:06:25;;;;;;;10.97;7.40;;;14.10;99.90;;;;;;5010805;28;20900;-67
2023/10/28 12:08:54;;;;;;;8.63;7.07;;;14.00;99.90;;;;;;5001159;28;20819;-67
2023/10/28 12:11:21;;;;;;;11.80;7.00;;;14.00;99.90;;;;;;5005450;28;20445;-69
2023/10/28 12:13:50;;;;;;;8.93;7.30;;;14.10;99.90;;;;;;5021227;28;20476;-67
2023/10/28 12:16:31;;;;;;;12.93;7.33;;;14.20;99.90;;;;;;5000234;28;20599;-67
2023/10/28 12:18:58;;;;;;;27.10;16.90;;;14.20;99.90;;;;;;5018286;28;20569;-67
2023/10/28 12:21:26;;;;;;;12.67;8.83;;;14.20;99.90;;;;;;5018350;28;20452;-67
2023/10/28 12:23:57;;;;;;;13.43;7.27;;;14.20;99.90;;;;;;5018687;28;20445;-67
2023/10/28 12:26:25;;;;;;;13.37;9.60;;;14.20;99.90;;;;;;5018911;28;20456;-68
2023/10/28 12:28:53;;;;;;;10.87;7.37;;;14.20;99.90;;;;;;5018657;28;20508;-67
2023/10/28 12:31:22;;;;;;;10.20;7.73;;;14.20;99.90;;;;;;5020763;28;20521;-68
2023/10/28 12:33:51;;;;;;;12.20;7.67;;;14.10;99.90;;;;;;5018934;28;20469;-68
2023/10/28 12:36:29;;;;;;;11.47;7.70;;;14.00;99.90;;;;;;5019554;28;20429;-67
2023/10/28 12:38:57;;;;;;;8.50;6.80;;;14.00;99.90;;;;;;5019231;28;20547;-66
2023/10/28 12:41:27;;;;;;;10.03;7.53;;;14.00;99.90;;;;;;5002025;28;20532;-66
2023/10/28 12:44:00;;;;;;;11.40;8.47;;;13.90;99.90;;;;;;5019754;28;20441;-68
2023/10/28 12:46:35;;;;;;;10.60;7.03;;;13.90;99.90;;;;;;5020561;28;20504;-69
2023/10/28 12:49:03;;;;;;;9.43;6.90;;;13.90;99.90;;;;;;5020058;28;20460;-68
2023/10/28 12:51:33;;;;;;;12.33;7.73;;;14.00;99.90;;;;;;5019936;28;20440;-68
2023/10/28 12:54:05;;;;;;;12.73;7.73;;;14.20;99.90;;;;;;5018727;28;20500;-69
2023/10/28 12:56:34;;;;;;;11.47;7.77;;;14.30;99.90;;;;;;5019190;28;20438;-68